sensor_id;sensor_type;location;lat;lon;timestamp;P1;durP1;ratioP1;P2;durP2;ratioP2
7173;SDS011;3628;48.654;8.932;2023-03-01T00:02:00;14.70;;;8.33;;
7173;SDS011;3628;48.654;8.932;2023-03-01T00:04:26;12.80;;;8.67;;
7173;SDS011;3628;48.654;8.932;2023-03-01T00:06:52;14.20;;;8.60;;
7173;SDS011;3628;48.654;8.932;2023-03-01T00:09:18;13.00;;;8.73;;
7173;SDS011;3628;48.654;8.932;2023-03-01T00:11:44;14.53;;;8.50;;
7173;SDS011;3628;48.654;8.932;2023-03-01T00:14:10;12.97;;;8.23;;
7173;SDS011;3628;48.654;8.932;2023-03-01T00:16:39;11.33;;;7.80;;
7173;SDS011;3628;48.654;8.932;2023-03-01T00:19:07;11.57;;;8.10;;
7173;SDS011;3628;48.654;8.932;2023-03-01T00:21:34;13.70;;;8.30;;
7173;SDS011;3628;48.654;8.932;2023-03-01T00:24:00;13.17;;;8.57;;
7173;SDS011;3628;48.654;8.932;2023-03-01T00:26:26;10.57;;;7.60;;
7173;SDS011;3628;48.654;8.932;2023-03-01T00:28:52;13.43;;;8.20;;
7173;SDS011;3628;48.654;8.932;2023-03-01T00:31:21;12.53;;;8.47;;
7173;SDS011;3628;48.654;8.932;2023-03-01T00:33:58;13.27;;;8.10;;
7173;SDS011;3628;48.654;8.932;2023-03-01T00:36:26;13.97;;;7.97;;
7173;SDS011;3628;48.654;8.932;2023-03-01T00:38:54;10.90;;;8.00;;
7173;SDS011;3628;48.654;8.932;2023-03-01T00:41:20;13.47;;;8.17;;
7173;SDS011;3628;48.654;8.932;2023-03-01T00:43:47;14.40;;;8.87;;
7173;SDS011;3628;48.654;8.932;2023-03-01T00:46:15;13.07;;;8.57;;
7173;SDS011;3628;48.654;8.932;2023-03-01T00:48:42;12.93;;;8.87;;
7173;SDS011;3628;48.654;8.932;2023-03-01T00:51:09;13.13;;;8.83;;
7173;SDS011;3628;48.654;8.932;2023-03-01T00:53:38;10.37;;;7.80;;
7173;SDS011;3628;48.654;8.932;2023-03-01T00:56:04;12.60;;;7.70;;
7173;SDS011;3628;48.654;8.932;2023-03-01T00:58:31;11.37;;;7.77;;
7173;SDS011;3628;48.654;8.932;2023-03-01T01:00:57;13.87;;;8.43;;
7173;SDS011;3628;48.654;8.932;2023-03-01T01:03:23;13.17;;;8.23;;
7173;SDS011;3628;48.654;8.932;2023-03-01T01:05:50;11.57;;;7.67;;
7173;SDS011;3628;48.654;8.932;2023-03-01T01:08:16;15.40;;;7.93;;
7173;SDS011;3628;48.654;8.932;2023-03-01T01:10:43;12.87;;;8.50;;
7173;SDS011;3628;48.654;8.932;2023-03-01T01:13:10;11.63;;;8.00;;
7173;SDS011;3628;48.654;8.932;2023-03-01T01:15:36;11.23;;;7.83;;
7173;SDS011;3628;48.654;8.932;2023-03-01T01:18:01;15.90;;;8.43;;
7173;SDS011;3628;48.654;8.932;2023-03-01T01:20:27;14.20;;;8.60;;
7173;SDS011;3628;48.654;8.932;2023-03-01T01:22:53;11.77;;;8.03;;
7173;SDS011;3628;48.654;8.932;2023-03-01T01:25:18;11.67;;;8.43;;
7173;SDS011;3628;48.654;8.932;2023-03-01T01:27:44;15.40;;;8.37;;
7173;SDS011;3628;48.654;8.932;2023-03-01T01:30:10;11.97;;;7.73;;
7173;SDS011;3628;48.654;8.932;2023-03-01T01:32:36;13.13;;;8.40;;
7173;SDS011;3628;48.654;8.932;2023-03-01T01:35:02;13.87;;;8.77;;
7173;SDS011;3628;48.654;8.932;2023-03-01T01:37:27;12.80;;;8.10;;
7173;SDS011;3628;48.654;8.932;2023-03-01T01:39:57;13.03;;;8.33;;
7173;SDS011;3628;48.654;8.932;2023-03-01T01:42:26;12.30;;;8.20;;
7173;SDS011;3628;48.654;8.932;2023-03-01T01:50:21;12.50;;;8.60;;
7173;SDS011;3628;48.654;8.932;2023-03-01T01:52:48;14.73;;;8.60;;
7173;SDS011;3628;48.654;8.932;2023-03-01T01:55:16;13.80;;;8.30;;
7173;SDS011;3628;48.654;8.932;2023-03-01T01:57:47;12.30;;;8.40;;
7173;SDS011;3628;48.654;8.932;2023-03-01T02:00:17;11.53;;;8.33;;
7173;SDS011;3628;48.654;8.932;2023-03-01T02:02:45;12.37;;;8.43;;
7173;SDS011;3628;48.654;8.932;2023-03-01T02:07:59;23.17;;;9.30;;
7173;SDS011;3628;48.654;8.932;2023-03-01T02:10:25;14.23;;;9.17;;
7173;SDS011;3628;48.654;8.932;2023-03-01T02:12:52;12.93;;;8.57;;
7173;SDS011;3628;48.654;8.932;2023-03-01T02:15:19;12.03;;;8.33;;
7173;SDS011;3628;48.654;8.932;2023-03-01T02:17:44;14.00;;;8.90;;
7173;SDS011;3628;48.654;8.932;2023-03-01T02:20:16;14.10;;;8.73;;
7173;SDS011;3628;48.654;8.932;2023-03-01T02:22:51;14.53;;;9.20;;
7173;SDS011;3628;48.654;8.932;2023-03-01T02:25:32;13.63;;;8.87;;
7173;SDS011;3628;48.654;8.932;2023-03-01T02:30:43;13.70;;;8.60;;
7173;SDS011;3628;48.654;8.932;2023-03-01T02:33:31;16.30;;;8.90;;
7173;SDS011;3628;48.654;8.932;2023-03-01T02:35:58;13.70;;;8.10;;
7173;SDS011;3628;48.654;8.932;2023-03-01T02:38:26;12.83;;;8.37;;
7173;SDS011;3628;48.654;8.932;2023-03-01T02:40:52;17.87;;;8.67;;
7173;SDS011;3628;48.654;8.932;2023-03-01T02:43:20;13.07;;;8.20;;
7173;SDS011;3628;48.654;8.932;2023-03-01T02:45:50;13.10;;;8.40;;
7173;SDS011;3628;48.654;8.932;2023-03-01T02:48:18;15.03;;;8.90;;
7173;SDS011;3628;48.654;8.932;2023-03-01T02:53:15;13.57;;;8.33;;
7173;SDS011;3628;48.654;8.932;2023-03-01T02:55:46;11.03;;;7.83;;
7173;SDS011;3628;48.654;8.932;2023-03-01T02:58:12;15.13;;;8.67;;
7173;SDS011;3628;48.654;8.932;2023-03-01T03:00:41;13.20;;;8.40;;
7173;SDS011;3628;48.654;8.932;2023-03-01T03:03:15;12.57;;;8.20;;
7173;SDS011;3628;48.654;8.932;2023-03-01T03:05:42;12.13;;;8.07;;
7173;SDS011;3628;48.654;8.932;2023-03-01T03:08:08;12.77;;;8.87;;
7173;SDS011;3628;48.654;8.932;2023-03-01T03:10:37;11.90;;;8.10;;
7173;SDS011;3628;48.654;8.932;2023-03-01T03:13:14;13.23;;;8.53;;
7173;SDS011;3628;48.654;8.932;2023-03-01T03:15:41;12.90;;;8.37;;
7173;SDS011;3628;48.654;8.932;2023-03-01T03:18:11;14.67;;;8.30;;
7173;SDS011;3628;48.654;8.932;2023-03-01T03:20:40;17.87;;;9.00;;
7173;SDS011;3628;48.654;8.932;2023-03-01T03:23:06;16.50;;;9.00;;
7173;SDS011;3628;48.654;8.932;2023-03-01T03:25:32;14.43;;;9.27;;
7173;SDS011;3628;48.654;8.932;2023-03-01T03:27:57;14.83;;;9.17;;
7173;SDS011;3628;48.654;8.932;2023-03-01T03:30:30;13.27;;;8.37;;
7173;SDS011;3628;48.654;8.932;2023-03-01T03:32:57;12.27;;;8.17;;
7173;SDS011;3628;48.654;8.932;2023-03-01T03:35:30;15.40;;;8.47;;
7173;SDS011;3628;48.654;8.932;2023-03-01T03:37:58;12.17;;;8.50;;
7173;SDS011;3628;48.654;8.932;2023-03-01T03:40:30;13.50;;;8.80;;
7173;SDS011;3628;48.654;8.932;2023-03-01T03:43:01;13.77;;;8.60;;
7173;SDS011;3628;48.654;8.932;2023-03-01T03:45:28;13.53;;;8.87;;
7173;SDS011;3628;48.654;8.932;2023-03-01T03:47:53;13.93;;;9.17;;
7173;SDS011;3628;48.654;8.932;2023-03-01T03:50:19;13.83;;;9.00;;
7173;SDS011;3628;48.654;8.932;2023-03-01T03:52:44;13.13;;;8.87;;
7173;SDS011;3628;48.654;8.932;2023-03-01T03:55:10;12.43;;;8.47;;
7173;SDS011;3628;48.654;8.932;2023-03-01T03:57:40;15.37;;;9.03;;
7173;SDS011;3628;48.654;8.932;2023-03-01T04:00:07;13.57;;;8.80;;
7173;SDS011;3628;48.654;8.932;2023-03-01T04:02:40;13.93;;;9.10;;
7173;SDS011;3628;48.654;8.932;2023-03-01T04:05:07;13.90;;;8.97;;
7173;SDS011;3628;48.654;8.932;2023-03-01T04:07:34;12.27;;;8.30;;
7173;SDS011;3628;48.654;8.932;2023-03-01T04:10:00;11.20;;;8.57;;
7173;SDS011;3628;48.654;8.932;2023-03-01T04:12:28;11.40;;;7.97;;
7173;SDS011;3628;48.654;8.932;2023-03-01T04:14:53;15.73;;;9.20;;
7173;SDS011;3628;48.654;8.932;2023-03-01T04:17:19;14.13;;;9.13;;
7173;SDS011;3628;48.654;8.932;2023-03-01T04:19:44;12.87;;;8.20;;
7173;SDS011;3628;48.654;8.932;2023-03-01T04:22:13;11.87;;;8.40;;
7173;SDS011;3628;48.654;8.932;2023-03-01T04:24:43;13.43;;;8.93;;
7173;SDS011;3628;48.654;8.932;2023-03-01T04:27:09;14.93;;;8.67;;
7173;SDS011;3628;48.654;8.932;2023-03-01T04:29:35;12.77;;;8.63;;
7173;SDS011;3628;48.654;8.932;2023-03-01T04:32:01;11.23;;;8.50;;
7173;SDS011;3628;48.654;8.932;2023-03-01T04:34:27;14.77;;;8.67;;
7173;SDS011;3628;48.654;8.932;2023-03-01T04:36:53;12.67;;;8.70;;
7173;SDS011;3628;48.654;8.932;2023-03-01T04:39:19;16.53;;;8.40;;
7173;SDS011;3628;48.654;8.932;2023-03-01T04:41:44;12.23;;;8.17;;
7173;SDS011;3628;48.654;8.932;2023-03-01T04:44:10;13.13;;;8.73;;
7173;SDS011;3628;48.654;8.932;2023-03-01T04:46:35;14.30;;;9.27;;
7173;SDS011;3628;48.654;8.932;2023-03-01T04:49:02;12.33;;;8.90;;
7173;SDS011;3628;48.654;8.932;2023-03-01T04:51:28;12.33;;;8.93;;
7173;SDS011;3628;48.654;8.932;2023-03-01T04:53:53;15.60;;;10.53;;
7173;SDS011;3628;48.654;8.932;2023-03-01T04:56:19;14.17;;;9.40;;
7173;SDS011;3628;48.654;8.932;2023-03-01T04:58:45;12.07;;;8.37;;
7173;SDS011;3628;48.654;8.932;2023-03-01T05:01:12;14.03;;;9.33;;
7173;SDS011;3628;48.654;8.932;2023-03-01T05:03:46;14.63;;;9.23;;
7173;SDS011;3628;48.654;8.932;2023-03-01T05:06:13;14.00;;;8.63;;
7173;SDS011;3628;48.654;8.932;2023-03-01T05:08:39;14.83;;;9.07;;
7173;SDS011;3628;48.654;8.932;2023-03-01T05:11:06;13.60;;;8.70;;
7173;SDS011;3628;48.654;8.932;2023-03-01T05:13:33;12.30;;;8.60;;
7173;SDS011;3628;48.654;8.932;2023-03-01T05:16:00;13.37;;;8.90;;
7173;SDS011;3628;48.654;8.932;2023-03-01T05:18:28;14.83;;;9.20;;
7173;SDS011;3628;48.654;8.932;2023-03-01T05:20:56;15.90;;;9.20;;
7173;SDS011;3628;48.654;8.932;2023-03-01T05:23:28;14.23;;;9.13;;
7173;SDS011;3628;48.654;8.932;2023-03-01T05:25:57;13.53;;;9.33;;
7173;SDS011;3628;48.654;8.932;2023-03-01T05:28:24;12.93;;;9.30;;
7173;SDS011;3628;48.654;8.932;2023-03-01T05:30:50;14.07;;;9.30;;
7173;SDS011;3628;48.654;8.932;2023-03-01T05:33:16;16.07;;;9.37;;
7173;SDS011;3628;48.654;8.932;2023-03-01T05:35:43;15.80;;;10.00;;
7173;SDS011;3628;48.654;8.932;2023-03-01T05:38:09;12.50;;;9.47;;
7173;SDS011;3628;48.654;8.932;2023-03-01T05:40:39;15.13;;;9.60;;
7173;SDS011;3628;48.654;8.932;2023-03-01T05:43:09;15.20;;;9.50;;
7173;SDS011;3628;48.654;8.932;2023-03-01T05:45:36;17.30;;;10.20;;
7173;SDS011;3628;48.654;8.932;2023-03-01T05:48:02;13.27;;;9.47;;
7173;SDS011;3628;48.654;8.932;2023-03-01T05:50:31;13.23;;;9.20;;
7173;SDS011;3628;48.654;8.932;2023-03-01T05:52:59;15.80;;;9.53;;
7173;SDS011;3628;48.654;8.932;2023-03-01T05:55:25;15.57;;;10.03;;
7173;SDS011;3628;48.654;8.932;2023-03-01T05:57:51;16.03;;;9.80;;
7173;SDS011;3628;48.654;8.932;2023-03-01T06:00:18;15.67;;;9.57;;
7173;SDS011;3628;48.654;8.932;2023-03-01T06:02:45;14.63;;;9.90;;
7173;SDS011;3628;48.654;8.932;2023-03-01T06:05:11;15.13;;;10.30;;
7173;SDS011;3628;48.654;8.932;2023-03-01T06:07:38;15.17;;;9.77;;
7173;SDS011;3628;48.654;8.932;2023-03-01T06:10:04;15.80;;;10.60;;
7173;SDS011;3628;48.654;8.932;2023-03-01T06:12:32;19.73;;;10.40;;
7173;SDS011;3628;48.654;8.932;2023-03-01T06:14:58;14.63;;;9.60;;
7173;SDS011;3628;48.654;8.932;2023-03-01T06:17:24;15.43;;;10.00;;
7173;SDS011;3628;48.654;8.932;2023-03-01T06:19:50;13.40;;;9.50;;
7173;SDS011;3628;48.654;8.932;2023-03-01T06:22:15;19.30;;;11.33;;
7173;SDS011;3628;48.654;8.932;2023-03-01T06:24:41;16.37;;;10.90;;
7173;SDS011;3628;48.654;8.932;2023-03-01T06:27:06;19.27;;;10.27;;
7173;SDS011;3628;48.654;8.932;2023-03-01T06:29:32;19.33;;;10.67;;
7173;SDS011;3628;48.654;8.932;2023-03-01T06:31:57;16.30;;;9.73;;
7173;SDS011;3628;48.654;8.932;2023-03-01T06:34:23;18.23;;;10.77;;
7173;SDS011;3628;48.654;8.932;2023-03-01T06:36:48;15.97;;;10.13;;
7173;SDS011;3628;48.654;8.932;2023-03-01T06:39:14;17.67;;;10.00;;
7173;SDS011;3628;48.654;8.932;2023-03-01T06:41:41;15.60;;;10.20;;
7173;SDS011;3628;48.654;8.932;2023-03-01T06:44:07;16.60;;;10.47;;
7173;SDS011;3628;48.654;8.932;2023-03-01T06:46:32;16.47;;;9.80;;
7173;SDS011;3628;48.654;8.932;2023-03-01T06:48:58;17.53;;;10.30;;
7173;SDS011;3628;48.654;8.932;2023-03-01T06:51:23;16.33;;;10.20;;
7173;SDS011;3628;48.654;8.932;2023-03-01T06:53:49;15.40;;;10.60;;
7173;SDS011;3628;48.654;8.932;2023-03-01T06:56:14;18.13;;;10.87;;
7173;SDS011;3628;48.654;8.932;2023-03-01T06:58:40;16.30;;;10.60;;
7173;SDS011;3628;48.654;8.932;2023-03-01T07:01:06;15.57;;;10.23;;
7173;SDS011;3628;48.654;8.932;2023-03-01T07:03:32;13.90;;;10.07;;
7173;SDS011;3628;48.654;8.932;2023-03-01T07:05:58;14.90;;;10.50;;
7173;SDS011;3628;48.654;8.932;2023-03-01T07:08:23;15.50;;;10.23;;
7173;SDS011;3628;48.654;8.932;2023-03-01T07:10:54;15.33;;;10.10;;
7173;SDS011;3628;48.654;8.932;2023-03-01T07:13:20;14.97;;;10.40;;
7173;SDS011;3628;48.654;8.932;2023-03-01T07:15:46;17.63;;;11.00;;
7173;SDS011;3628;48.654;8.932;2023-03-01T07:18:11;16.27;;;11.00;;
7173;SDS011;3628;48.654;8.932;2023-03-01T07:20:37;17.30;;;10.07;;
7173;SDS011;3628;48.654;8.932;2023-03-01T07:23:02;14.83;;;10.77;;
7173;SDS011;3628;48.654;8.932;2023-03-01T07:25:30;15.23;;;10.30;;
7173;SDS011;3628;48.654;8.932;2023-03-01T07:27:55;15.80;;;9.90;;
7173;SDS011;3628;48.654;8.932;2023-03-01T07:30:21;16.00;;;11.27;;
7173;SDS011;3628;48.654;8.932;2023-03-01T07:32:46;14.50;;;10.17;;
7173;SDS011;3628;48.654;8.932;2023-03-01T07:35:12;15.17;;;10.03;;
7173;SDS011;3628;48.654;8.932;2023-03-01T07:37:39;13.83;;;10.33;;
7173;SDS011;3628;48.654;8.932;2023-03-01T07:40:05;15.40;;;10.40;;
7173;SDS011;3628;48.654;8.932;2023-03-01T07:42:31;16.33;;;10.47;;
7173;SDS011;3628;48.654;8.932;2023-03-01T07:44:57;16.27;;;11.07;;
7173;SDS011;3628;48.654;8.932;2023-03-01T07:47:22;18.93;;;10.83;;
7173;SDS011;3628;48.654;8.932;2023-03-01T07:49:48;13.73;;;9.70;;
7173;SDS011;3628;48.654;8.932;2023-03-01T07:52:13;14.30;;;10.20;;
7173;SDS011;3628;48.654;8.932;2023-03-01T07:54:39;15.67;;;10.40;;
7173;SDS011;3628;48.654;8.932;2023-03-01T07:57:07;15.33;;;10.50;;
7173;SDS011;3628;48.654;8.932;2023-03-01T07:59:32;17.03;;;10.77;;
7173;SDS011;3628;48.654;8.932;2023-03-01T08:01:59;18.63;;;10.70;;
7173;SDS011;3628;48.654;8.932;2023-03-01T08:04:25;15.30;;;10.10;;
7173;SDS011;3628;48.654;8.932;2023-03-01T08:06:51;15.73;;;9.97;;
7173;SDS011;3628;48.654;8.932;2023-03-01T08:09:17;16.47;;;10.73;;
7173;SDS011;3628;48.654;8.932;2023-03-01T08:11:43;18.40;;;10.83;;
7173;SDS011;3628;48.654;8.932;2023-03-01T08:14:08;14.30;;;10.23;;
7173;SDS011;3628;48.654;8.932;2023-03-01T08:16:35;15.67;;;10.23;;
7173;SDS011;3628;48.654;8.932;2023-03-01T08:19:05;15.07;;;10.23;;
7173;SDS011;3628;48.654;8.932;2023-03-01T08:21:32;16.00;;;10.43;;
7173;SDS011;3628;48.654;8.932;2023-03-01T08:23:59;15.07;;;9.77;;
7173;SDS011;3628;48.654;8.932;2023-03-01T08:26:26;15.40;;;9.90;;
7173;SDS011;3628;48.654;8.932;2023-03-01T08:28:51;15.47;;;10.07;;
7173;SDS011;3628;48.654;8.932;2023-03-01T08:31:18;16.10;;;10.10;;
7173;SDS011;3628;48.654;8.932;2023-03-01T08:33:49;13.50;;;9.07;;
7173;SDS011;3628;48.654;8.932;2023-03-01T08:36:20;14.37;;;9.70;;
7173;SDS011;3628;48.654;8.932;2023-03-01T08:38:47;15.30;;;10.10;;
7173;SDS011;3628;48.654;8.932;2023-03-01T08:41:12;16.47;;;10.10;;
7173;SDS011;3628;48.654;8.932;2023-03-01T08:43:39;15.50;;;9.73;;
7173;SDS011;3628;48.654;8.932;2023-03-01T08:46:04;14.47;;;9.87;;
7173;SDS011;3628;48.654;8.932;2023-03-01T08:48:30;14.63;;;10.13;;
7173;SDS011;3628;48.654;8.932;2023-03-01T08:50:56;15.53;;;10.17;;
7173;SDS011;3628;48.654;8.932;2023-03-01T08:53:21;17.97;;;10.07;;
7173;SDS011;3628;48.654;8.932;2023-03-01T08:55:47;15.43;;;9.73;;
7173;SDS011;3628;48.654;8.932;2023-03-01T08:58:12;13.23;;;9.80;;
7173;SDS011;3628;48.654;8.932;2023-03-01T09:00:38;14.07;;;10.10;;
7173;SDS011;3628;48.654;8.932;2023-03-01T09:03:05;14.17;;;9.70;;
7173;SDS011;3628;48.654;8.932;2023-03-01T09:05:31;13.30;;;9.23;;
7173;SDS011;3628;48.654;8.932;2023-03-01T09:07:57;11.97;;;9.13;;
7173;SDS011;3628;48.654;8.932;2023-03-01T09:10:23;13.83;;;9.83;;
7173;SDS011;3628;48.654;8.932;2023-03-01T09:12:49;12.90;;;8.47;;
7173;SDS011;3628;48.654;8.932;2023-03-01T09:15:16;13.63;;;9.93;;
7173;SDS011;3628;48.654;8.932;2023-03-01T09:17:41;11.23;;;8.33;;
7173;SDS011;3628;48.654;8.932;2023-03-01T09:20:07;14.87;;;9.53;;
7173;SDS011;3628;48.654;8.932;2023-03-01T09:22:33;13.63;;;9.77;;
7173;SDS011;3628;48.654;8.932;2023-03-01T09:25:00;15.70;;;10.70;;
7173;SDS011;3628;48.654;8.932;2023-03-01T09:27:25;13.00;;;9.03;;
7173;SDS011;3628;48.654;8.932;2023-03-01T09:29:51;13.43;;;9.50;;
7173;SDS011;3628;48.654;8.932;2023-03-01T09:32:17;15.93;;;9.93;;
7173;SDS011;3628;48.654;8.932;2023-03-01T09:34:42;13.27;;;9.30;;
7173;SDS011;3628;48.654;8.932;2023-03-01T09:37:28;13.37;;;8.83;;
7173;SDS011;3628;48.654;8.932;2023-03-01T09:39:54;14.43;;;9.57;;
7173;SDS011;3628;48.654;8.932;2023-03-01T09:42:19;14.13;;;9.60;;
7173;SDS011;3628;48.654;8.932;2023-03-01T09:44:56;12.73;;;10.00;;
7173;SDS011;3628;48.654;8.932;2023-03-01T09:47:29;16.50;;;9.87;;
7173;SDS011;3628;48.654;8.932;2023-03-01T09:52:43;14.73;;;9.93;;
7173;SDS011;3628;48.654;8.932;2023-03-01T09:55:16;14.67;;;10.27;;
7173;SDS011;3628;48.654;8.932;2023-03-01T09:57:47;12.17;;;9.63;;
7173;SDS011;3628;48.654;8.932;2023-03-01T10:03:01;14.80;;;9.90;;
7173;SDS011;3628;48.654;8.932;2023-03-01T10:08:25;13.57;;;10.03;;
7173;SDS011;3628;48.654;8.932;2023-03-01T10:10:52;12.10;;;9.37;;
7173;SDS011;3628;48.654;8.932;2023-03-01T10:16:02;13.33;;;8.90;;
7173;SDS011;3628;48.654;8.932;2023-03-01T10:18:36;15.30;;;10.13;;
7173;SDS011;3628;48.654;8.932;2023-03-01T10:21:19;15.87;;;9.70;;
7173;SDS011;3628;48.654;8.932;2023-03-01T10:23:46;12.27;;;9.60;;
7173;SDS011;3628;48.654;8.932;2023-03-01T10:26:25;15.10;;;9.90;;
7173;SDS011;3628;48.654;8.932;2023-03-01T10:29:08;13.03;;;8.83;;
7173;SDS011;3628;48.654;8.932;2023-03-01T10:31:42;13.77;;;9.53;;
7173;SDS011;3628;48.654;8.932;2023-03-01T10:34:12;15.70;;;8.90;;
7173;SDS011;3628;48.654;8.932;2023-03-01T10:36:49;11.97;;;9.20;;
7173;SDS011;3628;48.654;8.932;2023-03-01T10:39:18;11.57;;;8.53;;
7173;SDS011;3628;48.654;8.932;2023-03-01T10:42:34;12.97;;;9.90;;
7173;SDS011;3628;48.654;8.932;2023-03-01T10:44:45;13.70;;;9.33;;
7173;SDS011;3628;48.654;8.932;2023-03-01T10:47:14;11.73;;;9.23;;
7173;SDS011;3628;48.654;8.932;2023-03-01T10:49:52;11.47;;;8.50;;
7173;SDS011;3628;48.654;8.932;2023-03-01T10:55:01;12.37;;;9.27;;
7173;SDS011;3628;48.654;8.932;2023-03-01T10:57:30;13.53;;;9.63;;
7173;SDS011;3628;48.654;8.932;2023-03-01T11:02:47;15.03;;;10.47;;
7173;SDS011;3628;48.654;8.932;2023-03-01T11:05:26;17.90;;;10.53;;
7173;SDS011;3628;48.654;8.932;2023-03-01T11:07:56;12.00;;;9.57;;
7173;SDS011;3628;48.654;8.932;2023-03-01T11:10:27;13.03;;;9.23;;
7173;SDS011;3628;48.654;8.932;2023-03-01T11:12:54;13.27;;;9.63;;
7173;SDS011;3628;48.654;8.932;2023-03-01T11:15:58;12.13;;;8.87;;
7173;SDS011;3628;48.654;8.932;2023-03-01T11:18:29;14.87;;;9.50;;
7173;SDS011;3628;48.654;8.932;2023-03-01T11:20:55;12.43;;;9.53;;
7173;SDS011;3628;48.654;8.932;2023-03-01T11:23:25;13.17;;;9.27;;
7173;SDS011;3628;48.654;8.932;2023-03-01T11:25:56;12.07;;;8.87;;
7173;SDS011;3628;48.654;8.932;2023-03-01T11:28:24;14.77;;;9.67;;
7173;SDS011;3628;48.654;8.932;2023-03-01T11:30:55;13.83;;;9.40;;
7173;SDS011;3628;48.654;8.932;2023-03-01T11:38:32;14.43;;;9.47;;
7173;SDS011;3628;48.654;8.932;2023-03-01T11:51:38;14.30;;;9.47;;
7173;SDS011;3628;48.654;8.932;2023-03-01T11:54:21;13.00;;;8.87;;
7173;SDS011;3628;48.654;8.932;2023-03-01T11:57:03;12.67;;;9.00;;
7173;SDS011;3628;48.654;8.932;2023-03-01T12:11:23;13.23;;;9.60;;
7173;SDS011;3628;48.654;8.932;2023-03-01T12:30:22;16.17;;;10.30;;
7173;SDS011;3628;48.654;8.932;2023-03-01T12:36:06;14.87;;;9.80;;
7173;SDS011;3628;48.654;8.932;2023-03-01T12:38:50;10.97;;;8.87;;
7173;SDS011;3628;48.654;8.932;2023-03-01T12:41:38;12.87;;;9.60;;
7173;SDS011;3628;48.654;8.932;2023-03-01T12:44:46;11.87;;;8.67;;
7173;SDS011;3628;48.654;8.932;2023-03-01T12:47:44;11.87;;;8.90;;
7173;SDS011;3628;48.654;8.932;2023-03-01T12:50:38;13.20;;;9.07;;
7173;SDS011;3628;48.654;8.932;2023-03-01T12:53:17;13.67;;;9.90;;
7173;SDS011;3628;48.654;8.932;2023-03-01T12:55:50;13.13;;;9.37;;
7173;SDS011;3628;48.654;8.932;2023-03-01T12:58:26;13.97;;;9.43;;
7173;SDS011;3628;48.654;8.932;2023-03-01T13:04:07;12.67;;;9.30;;
7173;SDS011;3628;48.654;8.932;2023-03-01T13:23:01;10.43;;;8.23;;
7173;SDS011;3628;48.654;8.932;2023-03-01T13:25:30;12.60;;;9.40;;
7173;SDS011;3628;48.654;8.932;2023-03-01T13:28:37;13.20;;;9.50;;
7173;SDS011;3628;48.654;8.932;2023-03-01T13:30:56;13.80;;;9.30;;
7173;SDS011;3628;48.654;8.932;2023-03-01T13:35:53;12.53;;;9.00;;
7173;SDS011;3628;48.654;8.932;2023-03-01T13:46:44;13.00;;;7.80;;
7173;SDS011;3628;48.654;8.932;2023-03-01T13:49:14;12.67;;;8.30;;
7173;SDS011;3628;48.654;8.932;2023-03-01T13:51:46;11.30;;;8.10;;
7173;SDS011;3628;48.654;8.932;2023-03-01T13:54:12;10.93;;;7.97;;
7173;SDS011;3628;48.654;8.932;2023-03-01T13:56:38;11.57;;;8.57;;
7173;SDS011;3628;48.654;8.932;2023-03-01T13:59:15;10.27;;;7.83;;
7173;SDS011;3628;48.654;8.932;2023-03-01T14:01:42;9.37;;;8.00;;
7173;SDS011;3628;48.654;8.932;2023-03-01T14:04:24;12.10;;;8.00;;
7173;SDS011;3628;48.654;8.932;2023-03-01T14:06:51;10.80;;;7.60;;
7173;SDS011;3628;48.654;8.932;2023-03-01T14:22:46;13.27;;;9.50;;
7173;SDS011;3628;48.654;8.932;2023-03-01T14:30:22;17.23;;;9.40;;
7173;SDS011;3628;48.654;8.932;2023-03-01T14:32:52;13.13;;;9.30;;
7173;SDS011;3628;48.654;8.932;2023-03-01T14:35:31;13.13;;;9.50;;
7173;SDS011;3628;48.654;8.932;2023-03-01T14:37:59;13.50;;;8.53;;
7173;SDS011;3628;48.654;8.932;2023-03-01T14:42:53;13.97;;;10.10;;
7173;SDS011;3628;48.654;8.932;2023-03-01T14:45:22;12.60;;;9.27;;
7173;SDS011;3628;48.654;8.932;2023-03-01T14:47:49;14.40;;;10.17;;
7173;SDS011;3628;48.654;8.932;2023-03-01T14:50:24;11.90;;;9.17;;
7173;SDS011;3628;48.654;8.932;2023-03-01T14:53:06;14.27;;;9.03;;
7173;SDS011;3628;48.654;8.932;2023-03-01T14:55:41;12.13;;;9.40;;
7173;SDS011;3628;48.654;8.932;2023-03-01T14:58:14;13.23;;;9.40;;
7173;SDS011;3628;48.654;8.932;2023-03-01T15:00:47;12.93;;;9.53;;
7173;SDS011;3628;48.654;8.932;2023-03-01T15:03:34;13.37;;;9.50;;
7173;SDS011;3628;48.654;8.932;2023-03-01T15:06:07;14.30;;;9.97;;
7173;SDS011;3628;48.654;8.932;2023-03-01T15:08:34;11.23;;;9.17;;
7173;SDS011;3628;48.654;8.932;2023-03-01T15:11:03;15.57;;;9.90;;
7173;SDS011;3628;48.654;8.932;2023-03-01T15:13:32;12.37;;;9.30;;
7173;SDS011;3628;48.654;8.932;2023-03-01T15:18:49;11.73;;;8.67;;
7173;SDS011;3628;48.654;8.932;2023-03-01T15:21:23;13.37;;;9.50;;
7173;SDS011;3628;48.654;8.932;2023-03-01T15:23:55;12.73;;;10.13;;
7173;SDS011;3628;48.654;8.932;2023-03-01T15:26:28;14.10;;;9.80;;
7173;SDS011;3628;48.654;8.932;2023-03-01T15:28:56;12.33;;;9.60;;
7173;SDS011;3628;48.654;8.932;2023-03-01T15:31:25;14.77;;;10.70;;
7173;SDS011;3628;48.654;8.932;2023-03-01T15:33:53;12.17;;;9.63;;
7173;SDS011;3628;48.654;8.932;2023-03-01T15:36:53;14.27;;;9.73;;
7173;SDS011;3628;48.654;8.932;2023-03-01T15:45:07;12.47;;;9.93;;
7173;SDS011;3628;48.654;8.932;2023-03-01T15:47:33;15.93;;;10.47;;
7173;SDS011;3628;48.654;8.932;2023-03-01T15:50:00;15.27;;;10.20;;
7173;SDS011;3628;48.654;8.932;2023-03-01T15:52:28;15.03;;;10.40;;
7173;SDS011;3628;48.654;8.932;2023-03-01T15:55:02;15.37;;;10.77;;
7173;SDS011;3628;48.654;8.932;2023-03-01T15:57:31;13.60;;;10.23;;
7173;SDS011;3628;48.654;8.932;2023-03-01T15:59:56;14.23;;;10.50;;
7173;SDS011;3628;48.654;8.932;2023-03-01T16:02:23;16.10;;;10.63;;
7173;SDS011;3628;48.654;8.932;2023-03-01T16:04:49;15.77;;;11.40;;
7173;SDS011;3628;48.654;8.932;2023-03-01T16:07:15;16.03;;;10.80;;
7173;SDS011;3628;48.654;8.932;2023-03-01T16:09:41;18.17;;;11.03;;
7173;SDS011;3628;48.654;8.932;2023-03-01T16:12:11;17.30;;;10.83;;
7173;SDS011;3628;48.654;8.932;2023-03-01T16:14:38;13.93;;;10.33;;
7173;SDS011;3628;48.654;8.932;2023-03-01T16:17:04;16.60;;;10.20;;
7173;SDS011;3628;48.654;8.932;2023-03-01T16:19:30;15.70;;;11.10;;
7173;SDS011;3628;48.654;8.932;2023-03-01T16:21:55;14.13;;;10.17;;
7173;SDS011;3628;48.654;8.932;2023-03-01T16:24:21;14.47;;;10.20;;
7173;SDS011;3628;48.654;8.932;2023-03-01T16:26:46;17.00;;;11.20;;
7173;SDS011;3628;48.654;8.932;2023-03-01T16:29:12;13.63;;;10.17;;
7173;SDS011;3628;48.654;8.932;2023-03-01T16:31:38;14.37;;;10.13;;
7173;SDS011;3628;48.654;8.932;2023-03-01T16:34:03;15.47;;;10.90;;
7173;SDS011;3628;48.654;8.932;2023-03-01T16:36:29;13.97;;;9.63;;
7173;SDS011;3628;48.654;8.932;2023-03-01T16:38:55;15.97;;;10.93;;
7173;SDS011;3628;48.654;8.932;2023-03-01T16:41:23;13.93;;;10.20;;
7173;SDS011;3628;48.654;8.932;2023-03-01T16:43:49;16.10;;;10.70;;
7173;SDS011;3628;48.654;8.932;2023-03-01T16:46:16;15.23;;;10.20;;
7173;SDS011;3628;48.654;8.932;2023-03-01T16:48:51;14.60;;;10.10;;
7173;SDS011;3628;48.654;8.932;2023-03-01T16:51:17;18.37;;;11.73;;
7173;SDS011;3628;48.654;8.932;2023-03-01T16:53:44;13.87;;;9.77;;
7173;SDS011;3628;48.654;8.932;2023-03-01T16:56:10;15.37;;;10.00;;
7173;SDS011;3628;48.654;8.932;2023-03-01T16:58:38;16.00;;;10.93;;
7173;SDS011;3628;48.654;8.932;2023-03-01T17:01:12;13.97;;;9.77;;
7173;SDS011;3628;48.654;8.932;2023-03-01T17:03:43;15.97;;;10.73;;
7173;SDS011;3628;48.654;8.932;2023-03-01T17:06:12;14.70;;;10.00;;
7173;SDS011;3628;48.654;8.932;2023-03-01T17:08:39;17.13;;;11.27;;
7173;SDS011;3628;48.654;8.932;2023-03-01T17:13:33;15.63;;;10.47;;
7173;SDS011;3628;48.654;8.932;2023-03-01T17:15:59;14.77;;;10.93;;
7173;SDS011;3628;48.654;8.932;2023-03-01T17:18:27;16.90;;;10.50;;
7173;SDS011;3628;48.654;8.932;2023-03-01T17:20:52;15.60;;;10.40;;
7173;SDS011;3628;48.654;8.932;2023-03-01T17:23:18;15.17;;;10.53;;
7173;SDS011;3628;48.654;8.932;2023-03-01T17:25:43;13.53;;;9.33;;
7173;SDS011;3628;48.654;8.932;2023-03-01T17:28:10;17.67;;;10.53;;